createdAt,value
2022-09-21T00:01:09.349Z,2.75
2022-09-21T00:03:38.202Z,2.95
2022-09-21T00:06:07.001Z,3.90
2022-09-21T00:08:35.142Z,3.67
2022-09-21T00:11:03.941Z,3.28
2022-09-21T00:13:33.124Z,3.63
2022-09-21T00:16:01.314Z,3.20
2022-09-21T00:18:31.099Z,2.63
2022-09-21T00:20:58.894Z,2.42
2022-09-21T00:23:27.030Z,2.67
2022-09-21T00:26:05.466Z,2.92
2022-09-21T00:28:33.432Z,2.67
2022-09-21T00:31:03.431Z,2.55
2022-09-21T00:33:33.114Z,2.95
2022-09-21T00:36:04.762Z,2.80
2022-09-21T00:38:32.609Z,2.88
2022-09-21T00:41:00.395Z,3.38
2022-09-21T00:43:28.564Z,2.85
2022-09-21T00:46:02.760Z,3.75
2022-09-21T00:48:32.539Z,2.67
2022-09-21T00:51:04.217Z,2.95
2022-09-21T00:53:33.123Z,2.85
2022-09-21T00:56:03.719Z,2.80
2022-09-21T01:01:01.771Z,2.80
2022-09-21T01:03:33.437Z,2.78
2022-09-21T01:06:01.263Z,3.10
2022-09-21T01:08:30.322Z,3.10
2022-09-21T01:11:18.468Z,2.78
2022-09-21T01:14:00.212Z,2.83
2022-09-21T01:16:36.772Z,2.75
2022-09-21T01:19:17.462Z,3.20
2022-09-21T01:21:57.234Z,2.80
2022-09-21T01:25:00.469Z,2.50
2022-09-21T01:27:46.964Z,2.42
2022-09-21T01:30:18.276Z,2.83
2022-09-21T01:32:51.615Z,2.95
2022-09-21T01:35:22.900Z,2.65
2022-09-21T01:37:57.617Z,3.30
2022-09-21T01:40:34.560Z,2.72
2022-09-21T01:43:05.847Z,2.88
2022-09-21T01:45:40.299Z,3.22
2022-09-21T01:48:09.179Z,2.50
2022-09-21T01:50:41.447Z,3.83
2022-09-21T01:53:14.080Z,2.65
2022-09-21T01:55:46.161Z,2.72
2022-09-21T01:58:20.259Z,2.95
2022-09-21T02:00:55.240Z,2.65
2022-09-21T02:03:29.086Z,2.17
2022-09-21T02:05:58.252Z,2.40
2022-09-21T02:08:27.778Z,3.78
2022-09-21T02:10:55.968Z,3.40
2022-09-21T02:13:27.618Z,3.17
2022-09-21T02:16:15.740Z,3.80
2022-09-21T02:18:56.931Z,3.08
2022-09-21T02:21:30.966Z,3.25
2022-09-21T02:24:06.967Z,2.90
2022-09-21T02:26:40.955Z,2.80
2022-09-21T02:29:18.881Z,3.05
2022-09-21T02:31:54.927Z,2.92
2022-09-21T02:34:30.776Z,3.47
2022-09-21T02:37:04.951Z,3.15
2022-09-21T02:39:39.595Z,3.70
2022-09-21T02:42:11.290Z,3.55
2022-09-21T02:44:42.740Z,6.00
2022-09-21T02:47:17.606Z,4.32
2022-09-21T02:49:51.735Z,4.35
2022-09-21T02:52:21.559Z,3.70
2022-09-21T02:54:52.196Z,4.70
2022-09-21T02:57:22.914Z,3.78
2022-09-21T02:59:52.190Z,3.03
2022-09-21T03:02:21.364Z,3.08
2022-09-21T03:04:50.221Z,3.45
2022-09-21T03:07:18.596Z,3.13
2022-09-21T03:09:46.571Z,3.50
2022-09-21T03:12:14.429Z,3.45
2022-09-21T03:14:42.254Z,3.88
2022-09-21T03:17:10.065Z,3.28
2022-09-21T03:19:39.180Z,3.00
2022-09-21T03:22:06.975Z,3.50
2022-09-21T03:24:47.032Z,3.42
2022-09-21T03:27:15.553Z,5.30
2022-09-21T03:29:43.350Z,3.88
2022-09-21T03:32:11.374Z,4.63
2022-09-21T03:34:40.505Z,4.40
2022-09-21T03:37:10.249Z,4.43
2022-09-21T03:39:38.046Z,3.92
2022-09-21T03:42:05.986Z,4.53
2022-09-21T03:44:34.453Z,3.33
2022-09-21T03:47:02.374Z,3.45
2022-09-21T03:49:31.034Z,4.85
2022-09-21T03:52:00.248Z,6.00
2022-09-21T03:54:28.284Z,5.03
2022-09-21T03:56:56.134Z,4.00
2022-09-21T03:59:23.988Z,5.13
2022-09-21T04:01:51.896Z,5.90
2022-09-21T04:04:19.787Z,5.88
2022-09-21T04:06:47.612Z,4.00
2022-09-21T04:09:16.792Z,3.78
2022-09-21T04:11:46.100Z,4.63
2022-09-21T04:14:14.064Z,4.90
2022-09-21T04:16:41.918Z,5.97
2022-09-21T04:19:09.738Z,5.72
2022-09-21T04:21:37.678Z,4.50
2022-09-21T04:24:05.667Z,5.55
2022-09-21T04:26:36.447Z,5.75
2022-09-21T04:29:06.496Z,5.47
2022-09-21T04:31:34.993Z,4.63
2022-09-21T04:37:15.121Z,4.78
2022-09-21T04:39:42.857Z,5.45
2022-09-21T04:42:12.249Z,5.00
2022-09-21T04:44:40.099Z,4.60
2022-09-21T04:47:08.120Z,8.88
2022-09-21T04:49:36.002Z,9.13
2022-09-21T04:52:04.093Z,8.18
2022-09-21T04:54:32.828Z,6.93
2022-09-21T04:57:00.645Z,7.03
2022-09-21T04:59:29.781Z,4.70
2022-09-21T05:01:57.544Z,4.50
2022-09-21T05:04:25.406Z,5.28
2022-09-21T05:06:54.124Z,6.90
2022-09-21T05:09:39.733Z,4.97
2022-09-21T05:12:07.932Z,5.32
2022-09-21T05:14:37.655Z,5.93
2022-09-21T05:17:05.529Z,6.13
2022-09-21T05:19:33.341Z,5.82
2022-09-21T05:22:01.206Z,5.72
2022-09-21T05:24:29.150Z,6.53
2022-09-21T05:26:57.228Z,7.13
2022-09-21T05:29:25.638Z,5.38
2022-09-21T05:32:02.154Z,5.50
2022-09-21T05:34:46.027Z,6.88
2022-09-21T05:37:33.202Z,6.50
2022-09-21T05:40:01.744Z,4.50
2022-09-21T05:42:30.339Z,5.60
2022-09-21T05:44:59.369Z,6.05
2022-09-21T05:47:38.411Z,5.78
2022-09-21T05:50:21.035Z,6.75
2022-09-21T05:52:55.109Z,7.85
2022-09-21T05:55:30.774Z,5.75
2022-09-21T05:58:06.908Z,5.90
2022-09-21T06:00:45.454Z,7.30
2022-09-21T06:03:36.266Z,5.95
2022-09-21T06:06:04.664Z,5.90
2022-09-21T06:08:32.545Z,5.95
2022-09-21T06:11:00.425Z,7.10
2022-09-21T06:13:28.422Z,7.68
2022-09-21T06:15:56.359Z,8.90
2022-09-21T06:18:24.150Z,7.13
2022-09-21T06:20:53.271Z,6.13
2022-09-21T06:23:21.284Z,6.63
2022-09-21T06:25:57.546Z,6.65
2022-09-21T06:28:27.923Z,6.43
2022-09-21T06:30:57.328Z,6.55
2022-09-21T06:33:25.764Z,7.38
2022-09-21T06:35:56.619Z,6.53
2022-09-21T06:38:26.166Z,6.72
2022-09-21T06:40:54.730Z,6.60
2022-09-21T06:43:23.105Z,7.25
2022-09-21T06:45:55.561Z,7.18
2022-09-21T06:48:23.840Z,8.25
2022-09-21T06:50:51.795Z,6.00
2022-09-21T06:53:21.037Z,5.75
2022-09-21T06:55:49.369Z,5.05
2022-09-21T06:58:17.180Z,6.18
2022-09-21T07:00:45.079Z,5.35
2022-09-21T07:03:13.340Z,5.28
2022-09-21T07:05:42.031Z,4.95
2022-09-21T07:10:05.147Z,4.57
2022-09-21T07:11:00.879Z,4.72
2022-09-21T07:13:28.876Z,6.55
2022-09-21T07:15:56.934Z,4.45
2022-09-21T07:18:25.344Z,6.13
2022-09-21T07:20:53.625Z,6.43
2022-09-21T07:23:22.862Z,5.05
2022-09-21T07:25:52.607Z,5.53
2022-09-21T07:28:21.892Z,5.90
2022-09-21T07:30:49.889Z,5.60
2022-09-21T07:33:18.005Z,5.95
2022-09-21T07:35:52.303Z,5.68
2022-09-21T07:38:20.217Z,5.20
2022-09-21T07:40:48.272Z,5.15
2022-09-21T07:43:16.456Z,5.47
2022-09-21T07:45:53.841Z,5.28
2022-09-21T07:48:22.709Z,5.63
2022-09-21T07:50:50.580Z,5.15
2022-09-21T07:53:18.699Z,5.82
2022-09-21T07:55:47.698Z,5.72
2022-09-21T07:58:33.176Z,4.82
2022-09-21T08:01:06.239Z,5.82
2022-09-21T08:03:34.150Z,5.60
2022-09-21T08:06:01.899Z,4.53
2022-09-21T08:08:29.667Z,5.38
2022-09-21T08:11:03.936Z,4.90
2022-09-21T08:13:31.785Z,4.78
2022-09-21T08:16:00.261Z,5.45
2022-09-21T08:18:30.887Z,4.68
2022-09-21T08:23:29.068Z,5.70
2022-09-21T08:26:00.278Z,5.20
2022-09-21T08:28:28.482Z,4.97
2022-09-21T08:31:00.404Z,6.07
2022-09-21T08:33:31.124Z,6.68
2022-09-21T08:36:00.862Z,6.32
2022-09-21T08:38:34.312Z,6.67
2022-09-21T08:41:03.516Z,7.15
2022-09-21T08:43:36.579Z,7.78
2022-09-21T08:46:10.028Z,7.22
2022-09-21T08:48:43.020Z,7.07
2022-09-21T08:51:15.166Z,7.10
2022-09-21T08:53:45.898Z,7.68
2022-09-21T08:56:15.295Z,8.77
2022-09-21T08:58:43.725Z,7.95
2022-09-21T09:01:29.735Z,8.68
2022-09-21T09:04:18.085Z,8.82
2022-09-21T09:06:53.510Z,9.23
2022-09-21T09:09:35.592Z,9.35
2022-09-21T09:12:17.382Z,10.25
2022-09-21T09:15:08.651Z,10.88
2022-09-21T09:17:49.296Z,8.40
2022-09-21T09:22:58.199Z,9.20
2022-09-21T09:25:26.019Z,8.73
2022-09-21T09:27:57.520Z,9.65
2022-09-21T09:30:27.349Z,9.35
2022-09-21T09:33:00.995Z,9.85
2022-09-21T09:35:33.256Z,9.85
2022-09-21T09:38:06.594Z,10.52
2022-09-21T09:40:57.901Z,9.48
2022-09-21T09:43:40.135Z,10.23
2022-09-21T09:46:17.889Z,9.85
2022-09-21T09:49:14.930Z,8.32
2022-09-21T09:51:44.662Z,7.80
2022-09-21T09:59:03.103Z,6.90
2022-09-21T11:54:33.493Z,3.25
2022-09-21T11:57:22.192Z,2.97
2022-09-21T12:00:29.010Z,2.25
2022-09-21T12:03:41.565Z,2.40
2022-09-21T12:06:53.097Z,1.30
2022-09-21T12:09:45.313Z,1.80
2022-09-21T12:12:31.214Z,1.13
2022-09-21T12:15:18.565Z,1.10
2022-09-21T12:17:58.505Z,1.33
2022-09-21T12:20:42.642Z,1.02
2022-09-21T12:23:20.152Z,0.40
2022-09-21T12:26:08.835Z,0.50
2022-09-21T12:28:47.279Z,0.95
2022-09-21T12:31:26.417Z,0.80
2022-09-21T12:34:11.449Z,1.10
2022-09-21T12:37:11.338Z,1.08
2022-09-21T12:39:48.979Z,0.73
2022-09-21T12:42:32.276Z,1.00
2022-09-21T12:45:09.745Z,0.90
2022-09-21T12:47:51.550Z,1.17
2022-09-21T12:50:29.783Z,0.77
2022-09-21T12:53:00.986Z,0.82
2022-09-21T12:55:41.675Z,0.80
2022-09-21T12:58:23.746Z,0.88
2022-09-21T13:01:03.327Z,0.70
2022-09-21T13:03:37.294Z,0.63
2022-09-21T13:06:39.778Z,0.90
2022-09-21T13:09:12.294Z,0.93
2022-09-21T13:11:52.574Z,0.90
2022-09-21T13:14:24.269Z,1.20
2022-09-21T13:16:58.633Z,0.60
2022-09-21T13:19:29.116Z,0.75
2022-09-21T13:24:59.443Z,0.55
2022-09-21T13:28:04.349Z,0.75
2022-09-21T13:30:40.527Z,0.40
2022-09-21T13:33:31.901Z,0.60
2022-09-21T13:36:08.490Z,0.85
2022-09-21T13:38:59.239Z,0.50
2022-09-21T13:41:45.769Z,0.88
2022-09-21T13:46:57.626Z,0.45
2022-09-21T13:50:00.298Z,0.60
2022-09-21T13:52:43.883Z,0.70
2022-09-21T13:55:29.510Z,1.17
2022-09-21T13:58:00.089Z,0.60
2022-09-21T14:00:44.362Z,0.70
2022-09-21T14:03:27.286Z,0.70
2022-09-21T14:06:06.672Z,0.80
2022-09-21T14:08:43.160Z,1.00
2022-09-21T14:11:19.158Z,0.98
2022-09-21T14:14:03.864Z,0.50
2022-09-21T14:16:56.931Z,0.70
2022-09-21T14:20:12.101Z,0.60
2022-09-21T14:22:46.612Z,0.70
2022-09-21T14:25:54.660Z,0.70
2022-09-21T14:28:37.823Z,0.70
2022-09-21T14:31:18.854Z,0.57
2022-09-21T14:34:10.105Z,0.90
2022-09-21T14:36:45.938Z,0.82
2022-09-21T14:39:27.587Z,0.60
2022-09-21T14:42:01.389Z,0.80
2022-09-21T14:44:41.064Z,0.70
2022-09-21T14:47:30.194Z,0.93
2022-09-21T14:50:20.593Z,0.60
2022-09-21T14:53:16.008Z,0.52
2022-09-21T14:56:17.225Z,0.50
2022-09-21T14:59:06.347Z,0.60
2022-09-21T15:01:48.467Z,0.40
2022-09-21T15:04:46.056Z,0.50
2022-09-21T15:07:55.609Z,0.63
2022-09-21T15:10:48.930Z,0.47
2022-09-21T15:13:43.436Z,0.93
2022-09-21T15:16:28.568Z,0.43
2022-09-21T15:19:16.460Z,0.93
2022-09-21T15:21:51.830Z,0.50
2022-09-21T15:24:32.974Z,0.50
2022-09-21T15:27:10.889Z,0.60
2022-09-21T15:29:57.893Z,0.35
2022-09-21T15:32:43.612Z,0.47
2022-09-21T15:35:20.213Z,0.50
2022-09-21T15:37:51.730Z,0.50
2022-09-21T15:40:23.284Z,0.80
2022-09-21T15:43:03.914Z,0.40
2022-09-21T15:45:45.936Z,0.50
2022-09-21T15:48:17.734Z,0.50
2022-09-21T15:50:51.143Z,0.50
2022-09-21T15:53:23.689Z,0.77
2022-09-21T15:55:52.382Z,0.30
2022-09-21T15:58:35.731Z,0.85
2022-09-21T16:01:12.886Z,0.50
2022-09-21T16:03:41.912Z,0.60
2022-09-21T16:06:26.078Z,0.50
2022-09-21T16:08:54.650Z,0.65
2022-09-21T16:11:35.744Z,0.43
2022-09-21T16:14:24.999Z,0.50
2022-09-21T16:17:25.995Z,0.50
2022-09-21T16:20:19.739Z,0.90
2022-09-21T16:22:50.137Z,1.30
2022-09-21T16:25:37.166Z,2.38
2022-09-21T16:28:09.775Z,2.35
2022-09-21T16:30:45.148Z,1.27
2022-09-21T16:33:41.138Z,0.68
2022-09-21T16:36:40.711Z,1.20
2022-09-21T16:39:17.353Z,0.60
2022-09-21T16:41:52.112Z,0.77
2022-09-21T16:44:22.843Z,0.90
2022-09-21T16:46:59.816Z,1.13
2022-09-21T16:49:32.657Z,1.00
2022-09-21T16:52:01.319Z,0.60
2022-09-21T16:54:29.921Z,0.80
2022-09-21T16:56:59.632Z,0.60
2022-09-21T16:59:28.320Z,1.43
2022-09-21T17:01:57.928Z,0.70
2022-09-21T17:04:28.179Z,0.67
2022-09-21T17:06:58.554Z,0.77
2022-09-21T17:09:30.060Z,0.88
2022-09-21T17:12:01.392Z,0.68
2022-09-21T17:14:35.527Z,0.80
2022-09-21T17:17:08.442Z,0.70
2022-09-21T17:19:36.842Z,0.70
2022-09-21T17:22:07.061Z,0.60
2022-09-21T17:24:50.398Z,0.77
2022-09-21T17:27:21.256Z,0.95
2022-09-21T17:29:50.177Z,0.73
2022-09-21T17:32:20.865Z,0.98
2022-09-21T17:34:53.267Z,0.80
2022-09-21T17:37:24.228Z,0.80
2022-09-21T17:39:53.568Z,1.02
2022-09-21T17:42:25.885Z,1.10
2022-09-21T17:45:12.645Z,4.32
2022-09-21T17:47:41.642Z,6.97
2022-09-21T17:50:20.139Z,8.02
2022-09-21T17:53:07.371Z,7.32
2022-09-21T17:55:35.870Z,5.40
2022-09-21T17:58:36.997Z,3.92
2022-09-21T18:03:41.081Z,3.75
2022-09-21T18:06:10.524Z,4.32
2022-09-21T18:08:41.419Z,3.90
2022-09-21T18:11:27.709Z,3.35
2022-09-21T18:14:05.561Z,6.80
2022-09-21T18:16:40.997Z,8.40
2022-09-21T18:19:35.255Z,9.48
2022-09-21T18:22:16.057Z,9.65
2022-09-21T18:24:46.584Z,9.00
2022-09-21T18:29:46.280Z,8.63
2022-09-21T18:32:32.258Z,6.43
2022-09-21T18:35:19.515Z,4.90
2022-09-21T18:37:59.482Z,4.45
2022-09-21T18:40:37.153Z,4.32
2022-09-21T18:43:18.756Z,4.80
2022-09-21T18:45:53.117Z,3.90
2022-09-21T18:48:32.458Z,3.42
2022-09-21T18:51:11.675Z,4.07
2022-09-21T18:53:46.622Z,4.25
2022-09-21T18:56:17.213Z,5.20
2022-09-21T19:01:14.571Z,4.40
2022-09-21T19:03:44.000Z,8.30
2022-09-21T19:06:27.402Z,7.70
2022-09-21T19:09:02.029Z,7.15
2022-09-21T19:11:35.054Z,7.35
2022-09-21T19:14:12.109Z,6.22
2022-09-21T19:16:51.598Z,7.10
2022-09-21T19:19:30.806Z,8.20
2022-09-21T19:22:04.874Z,8.13
2022-09-21T19:24:38.143Z,6.35
2022-09-21T19:27:18.754Z,6.22
2022-09-21T19:32:40.732Z,4.18
2022-09-21T19:35:21.322Z,3.85
2022-09-21T19:40:19.223Z,4.28
2022-09-21T19:43:20.606Z,5.32
2022-09-21T19:46:04.439Z,5.13
2022-09-21T19:48:40.803Z,5.78
2022-09-21T19:51:16.121Z,5.53
2022-09-21T19:54:02.195Z,6.80
2022-09-21T19:56:54.716Z,7.10
2022-09-21T19:59:42.977Z,7.10
2022-09-21T20:02:13.477Z,6.88
2022-09-21T20:07:22.546Z,6.00
2022-09-21T20:10:06.536Z,6.25
2022-09-21T20:12:42.309Z,6.22
2022-09-21T20:15:17.877Z,6.05
2022-09-21T20:17:50.290Z,5.95
2022-09-21T20:20:22.701Z,5.93
2022-09-21T20:22:51.321Z,5.30
2022-09-21T20:25:24.458Z,4.50
2022-09-21T20:27:55.257Z,4.53
2022-09-21T20:30:26.491Z,4.40
2022-09-21T20:32:57.328Z,4.70
2022-09-21T20:35:27.670Z,3.88
2022-09-21T20:37:59.858Z,4.13
2022-09-21T20:40:30.169Z,4.25
2022-09-21T20:42:58.265Z,3.97
2022-09-21T20:45:27.635Z,3.97
2022-09-21T20:47:57.215Z,5.03
2022-09-21T20:50:30.406Z,4.77
2022-09-21T20:52:58.686Z,5.95
2022-09-21T20:55:29.196Z,6.93
2022-09-21T21:00:24.610Z,7.07
2022-09-21T21:02:54.071Z,7.43
2022-09-21T21:05:22.222Z,7.07
2022-09-21T21:07:50.089Z,6.65
2022-09-21T21:10:19.121Z,6.07
2022-09-21T21:12:46.950Z,5.63
2022-09-21T21:15:14.884Z,6.10
2022-09-21T21:17:43.187Z,6.30
2022-09-21T21:20:12.948Z,5.80
2022-09-21T21:22:40.843Z,5.65
2022-09-21T21:25:09.963Z,5.72
2022-09-21T21:27:38.237Z,5.65
2022-09-21T21:30:07.590Z,5.70
2022-09-21T21:32:36.117Z,5.35
2022-09-21T21:35:04.867Z,4.97
2022-09-21T21:37:34.045Z,5.32
2022-09-21T21:40:02.426Z,4.30
2022-09-21T21:42:31.431Z,4.22
2022-09-21T21:44:59.352Z,4.00
2022-09-21T21:47:39.392Z,4.20
2022-09-21T21:50:08.537Z,4.60
2022-09-21T21:52:38.166Z,3.95
2022-09-21T21:55:06.743Z,4.38
2022-09-21T21:57:34.842Z,3.92
2022-09-21T22:00:03.276Z,3.90
2022-09-21T22:02:32.789Z,3.90
2022-09-21T22:05:00.720Z,4.07
2022-09-21T22:07:28.505Z,4.55
2022-09-21T22:09:57.616Z,4.40
2022-09-21T22:12:26.136Z,4.53
2022-09-21T22:14:53.938Z,3.38
2022-09-21T22:17:21.693Z,4.07
2022-09-21T22:19:49.540Z,3.72
2022-09-21T22:22:17.344Z,3.30
2022-09-21T22:24:45.214Z,2.97
2022-09-21T22:27:14.384Z,3.40
2022-09-21T22:29:42.179Z,4.15
2022-09-21T22:32:09.981Z,4.15
2022-09-21T22:34:37.886Z,4.20
2022-09-21T22:37:05.786Z,3.58
2022-09-21T22:39:33.544Z,3.75
2022-09-21T22:42:01.509Z,3.28
2022-09-21T22:44:30.896Z,3.15
2022-09-21T22:46:58.687Z,3.15
2022-09-21T22:49:26.429Z,3.38
2022-09-21T22:51:54.268Z,3.45
2022-09-21T22:54:22.023Z,3.53
2022-09-21T22:56:49.834Z,2.95
2022-09-21T22:59:17.572Z,2.92
2022-09-21T23:01:46.687Z,3.55
2022-09-21T23:04:14.748Z,3.60
2022-09-21T23:06:44.268Z,3.40
2022-09-21T23:09:15.754Z,3.13
2022-09-21T23:11:47.347Z,3.22
2022-09-21T23:14:15.822Z,3.30
2022-09-21T23:16:44.170Z,3.67
2022-09-21T23:19:16.331Z,3.30
2022-09-21T23:21:45.640Z,3.15
2022-09-21T23:24:13.797Z,3.60
2022-09-21T23:26:41.727Z,3.38
2022-09-21T23:29:12.822Z,3.50
2022-09-21T23:31:44.762Z,3.30
2022-09-21T23:34:15.677Z,3.38
2022-09-21T23:36:45.143Z,3.13
2022-09-21T23:39:14.929Z,3.40
2022-09-21T23:41:43.229Z,4.45
2022-09-21T23:44:11.097Z,4.75
2022-09-21T23:46:40.258Z,3.38
2022-09-21T23:49:08.418Z,4.20
2022-09-21T23:51:38.026Z,4.32
2022-09-21T23:54:06.147Z,3.97
2022-09-21T23:56:34.210Z,3.80
2022-09-21T23:59:02.213Z,3.35
